createdAt,value
2023-07-17T00:01:01.784Z,4.93
2023-07-17T00:06:06.158Z,5.28
2023-07-17T00:11:08.980Z,4.82
2023-07-17T00:16:11.970Z,4.57
2023-07-17T00:21:16.523Z,4.80
2023-07-17T00:26:19.747Z,5.78
2023-07-17T00:31:22.785Z,4.85
2023-07-17T00:36:26.984Z,5.03
2023-07-17T00:41:31.128Z,4.72
2023-07-17T00:46:35.875Z,4.85
2023-07-17T00:51:44.615Z,5.07
2023-07-17T00:56:48.399Z,4.93
2023-07-17T01:01:51.610Z,5.03
2023-07-17T01:06:56.096Z,4.90
2023-07-17T01:11:59.003Z,5.95
2023-07-17T01:17:02.288Z,5.22
2023-07-17T01:22:12.717Z,4.78
2023-07-17T01:27:18.732Z,4.63
2023-07-17T01:32:22.023Z,5.32
2023-07-17T01:37:25.012Z,5.28
2023-07-17T01:42:29.187Z,5.15
2023-07-17T01:47:32.217Z,5.57
2023-07-17T01:52:35.134Z,5.05
2023-07-17T01:57:39.351Z,5.28
2023-07-17T02:02:42.942Z,5.20
2023-07-17T02:07:45.904Z,4.82
2023-07-17T02:12:50.129Z,5.75
2023-07-17T02:17:53.002Z,5.03
2023-07-17T02:22:56.014Z,4.80
2023-07-17T02:28:00.259Z,4.82
2023-07-17T02:33:03.070Z,4.22
2023-07-17T02:38:06.057Z,4.53
2023-07-17T02:43:10.822Z,4.78
2023-07-17T02:48:13.714Z,5.60
2023-07-17T02:53:16.584Z,5.03
2023-07-17T02:58:23.055Z,4.85
2023-07-17T03:03:25.968Z,4.68
2023-07-17T03:08:28.951Z,4.80
2023-07-17T03:13:33.529Z,4.97
2023-07-17T03:18:36.337Z,5.20
2023-07-17T03:23:39.648Z,5.13
2023-07-17T03:28:43.936Z,5.00
2023-07-17T03:33:47.099Z,4.82
2023-07-17T03:38:50.033Z,4.97
2023-07-17T03:43:58.053Z,5.07
2023-07-17T03:49:04.998Z,5.45
2023-07-17T03:54:08.339Z,4.70
2023-07-17T03:59:12.620Z,4.65
2023-07-17T04:04:15.493Z,5.18
2023-07-17T04:09:18.853Z,4.25
2023-07-17T04:14:23.241Z,4.38
2023-07-17T04:19:26.667Z,5.88
2023-07-17T04:24:29.618Z,4.90
2023-07-17T04:29:34.050Z,5.57
2023-07-17T04:34:39.700Z,5.38
2023-07-17T04:39:42.520Z,5.70
2023-07-17T04:44:46.903Z,5.40
2023-07-17T04:49:54.270Z,4.93
2023-07-17T04:54:58.835Z,4.97
2023-07-17T05:00:03.988Z,5.65
2023-07-17T05:05:07.657Z,5.03
2023-07-17T05:10:11.662Z,4.57
2023-07-17T05:15:18.593Z,5.55
2023-07-17T05:20:22.197Z,3.65
2023-07-17T05:25:25.916Z,5.15
2023-07-17T05:30:30.252Z,4.72
2023-07-17T05:35:33.096Z,4.85
2023-07-17T05:40:38.893Z,5.22
2023-07-17T05:45:43.222Z,4.70
2023-07-17T05:50:47.216Z,4.80
2023-07-17T05:55:50.137Z,5.20
2023-07-17T06:00:54.421Z,5.13
2023-07-17T06:05:57.296Z,5.15
2023-07-17T06:11:00.307Z,4.70
2023-07-17T06:16:04.911Z,4.85
2023-07-17T06:21:08.099Z,3.67
2023-07-17T06:26:10.936Z,3.08
2023-07-17T06:31:15.672Z,2.15
2023-07-17T06:36:19.253Z,3.75
2023-07-17T06:41:22.076Z,2.30
2023-07-17T06:46:26.381Z,3.20
2023-07-17T06:51:29.242Z,3.08
2023-07-17T06:56:32.544Z,2.33
2023-07-17T07:01:36.873Z,2.65
2023-07-17T07:06:39.760Z,3.42
2023-07-17T07:11:42.778Z,2.92
2023-07-17T07:16:47.066Z,2.75
2023-07-17T07:21:50.010Z,3.70
2023-07-17T07:26:52.896Z,2.85
2023-07-17T07:31:57.114Z,2.70
2023-07-17T07:36:59.971Z,2.38
2023-07-17T07:42:02.876Z,2.58
2023-07-17T07:47:07.668Z,2.92
2023-07-17T07:52:10.484Z,1.83
2023-07-17T07:57:13.297Z,2.45
2023-07-17T08:02:18.320Z,2.03
2023-07-17T08:07:21.307Z,2.33
2023-07-17T08:12:24.194Z,1.88
2023-07-17T08:17:28.437Z,1.42
2023-07-17T08:22:31.306Z,1.67
2023-07-17T08:27:34.165Z,1.60
2023-07-17T08:32:38.446Z,2.08
2023-07-17T08:37:41.272Z,2.25
2023-07-17T08:42:46.981Z,1.83
2023-07-17T08:47:53.468Z,2.10
2023-07-17T08:52:57.334Z,1.73
2023-07-17T08:58:04.481Z,2.08
2023-07-17T09:03:09.435Z,2.42
2023-07-17T09:08:12.437Z,2.40
2023-07-17T09:13:15.510Z,2.42
2023-07-17T09:18:27.349Z,2.40
2023-07-17T09:23:39.503Z,2.03
2023-07-17T09:28:49.893Z,2.70
2023-07-17T09:33:54.759Z,3.25
2023-07-17T09:38:58.950Z,2.60
2023-07-17T09:44:04.148Z,2.63
2023-07-17T09:49:09.191Z,1.95
2023-07-17T09:54:13.595Z,2.60
2023-07-17T09:59:20.284Z,1.98
2023-07-17T10:09:34.383Z,1.63
2023-07-17T10:14:37.926Z,1.98
2023-07-17T10:19:48.313Z,1.98
2023-07-17T10:24:51.328Z,1.50
2023-07-17T10:29:54.207Z,2.08
2023-07-17T10:34:58.511Z,1.88
2023-07-17T10:40:06.206Z,1.95
2023-07-17T10:45:11.280Z,2.22
2023-07-17T10:50:15.676Z,2.35
2023-07-17T10:55:18.557Z,1.83
2023-07-17T11:00:21.768Z,2.10
2023-07-17T11:05:26.016Z,1.92
2023-07-17T11:10:28.982Z,2.55
2023-07-17T11:15:33.727Z,2.25
2023-07-17T11:20:38.520Z,2.65
2023-07-17T11:25:43.353Z,1.88
2023-07-17T11:30:46.165Z,1.45
2023-07-17T11:35:51.813Z,1.70
2023-07-17T11:40:56.732Z,1.83
2023-07-17T11:46:03.255Z,1.83
2023-07-17T11:51:08.027Z,1.85
2023-07-17T11:56:11.162Z,1.20
2023-07-17T12:01:14.038Z,1.58
2023-07-17T12:06:18.243Z,1.40
2023-07-17T12:11:21.102Z,1.48
2023-07-17T12:16:23.939Z,1.70
2023-07-17T12:21:30.881Z,1.65
2023-07-17T12:26:35.031Z,1.27
2023-07-17T12:31:38.592Z,1.65
2023-07-17T12:36:43.017Z,1.38
2023-07-17T12:41:46.034Z,1.73
2023-07-17T12:46:48.968Z,1.52
2023-07-17T12:51:53.265Z,1.70
2023-07-17T12:56:56.176Z,2.03
2023-07-17T13:02:01.933Z,1.90
2023-07-17T13:07:07.479Z,1.30
2023-07-17T13:12:10.591Z,1.17
2023-07-17T13:17:13.395Z,1.38
2023-07-17T13:22:17.817Z,1.50
2023-07-17T13:27:20.748Z,1.50
2023-07-17T13:32:23.590Z,2.25
2023-07-17T13:37:27.771Z,1.60
2023-07-17T13:42:30.600Z,1.60
2023-07-17T13:47:33.586Z,1.52
2023-07-17T13:52:37.880Z,1.67
2023-07-17T13:57:40.707Z,2.42
2023-07-17T14:02:43.816Z,1.77
2023-07-17T14:07:48.008Z,2.08
2023-07-17T14:12:50.964Z,1.98
2023-07-17T14:17:53.853Z,1.67
2023-07-17T14:22:58.161Z,1.33
2023-07-17T14:28:01.066Z,1.20
2023-07-17T14:33:04.572Z,1.75
2023-07-17T14:38:08.863Z,1.52
2023-07-17T14:43:11.863Z,1.90
2023-07-17T14:48:14.878Z,1.02
2023-07-17T14:53:19.090Z,1.75
2023-07-17T14:58:21.982Z,1.65
2023-07-17T15:03:24.922Z,1.42
2023-07-17T15:08:29.193Z,1.75
2023-07-17T15:13:37.368Z,1.45
2023-07-17T15:18:41.187Z,1.55
2023-07-17T15:23:47.130Z,1.60
2023-07-17T15:28:49.939Z,1.50
2023-07-17T15:33:56.128Z,1.33
2023-07-17T15:39:00.354Z,1.77
2023-07-17T15:44:03.231Z,1.23
2023-07-17T15:49:06.100Z,1.07
2023-07-17T15:54:10.401Z,1.58
2023-07-17T16:04:15.950Z,1.40
2023-07-17T16:09:21.039Z,1.17
2023-07-17T16:14:23.868Z,1.38
2023-07-17T16:19:27.504Z,0.90
2023-07-17T16:24:31.811Z,0.98
2023-07-17T16:34:37.470Z,1.17
2023-07-17T16:39:41.684Z,1.07
2023-07-17T16:44:44.606Z,1.42
2023-07-17T16:49:47.532Z,1.00
2023-07-17T16:54:51.850Z,0.85
2023-07-17T16:59:55.234Z,1.35
2023-07-17T17:04:58.250Z,1.75
2023-07-17T17:10:02.732Z,1.20
2023-07-17T17:15:06.628Z,1.20
2023-07-17T17:20:10.806Z,1.73
2023-07-17T17:25:15.105Z,1.15
2023-07-17T17:30:18.028Z,1.10
2023-07-17T17:35:21.152Z,1.40
2023-07-17T17:40:25.440Z,0.93
2023-07-17T17:45:29.469Z,1.95
2023-07-17T17:50:32.723Z,1.80
2023-07-17T18:00:43.083Z,2.03
2023-07-17T18:05:46.510Z,1.85
2023-07-17T18:10:50.827Z,1.95
2023-07-17T18:15:53.681Z,2.40
2023-07-17T18:20:56.725Z,3.83
2023-07-17T18:26:00.976Z,2.80
2023-07-17T18:31:04.983Z,2.28
2023-07-17T18:36:08.984Z,2.85
2023-07-17T18:41:14.059Z,2.88
2023-07-17T18:46:17.099Z,2.17
2023-07-17T18:51:20.405Z,2.75
2023-07-17T18:56:24.676Z,2.45
2023-07-17T19:01:27.572Z,4.32
2023-07-17T19:06:31.290Z,3.00
2023-07-17T19:11:35.498Z,2.60
2023-07-17T19:16:38.576Z,2.67
2023-07-17T19:21:44.746Z,2.60
2023-07-17T19:26:49.010Z,3.05
2023-07-17T19:31:52.210Z,2.83
2023-07-17T19:36:56.189Z,3.67
2023-07-17T19:42:00.503Z,2.15
2023-07-17T19:47:03.384Z,2.47
2023-07-17T19:52:07.117Z,1.90
2023-07-17T19:57:11.808Z,2.50
2023-07-17T20:02:14.810Z,2.13
2023-07-17T20:07:17.643Z,1.70
2023-07-17T20:12:22.425Z,2.78
2023-07-17T20:17:26.439Z,1.85
2023-07-17T20:22:29.428Z,2.10
2023-07-17T20:27:39.522Z,2.35
2023-07-17T20:32:42.851Z,1.40
2023-07-17T20:37:45.768Z,2.45
2023-07-17T20:42:50.500Z,1.58
2023-07-17T20:47:53.378Z,1.63
2023-07-17T20:52:57.927Z,1.77
2023-07-17T20:58:02.545Z,1.60
2023-07-17T21:03:05.556Z,1.35
2023-07-17T21:08:08.760Z,1.75
2023-07-17T21:13:12.973Z,2.33
2023-07-17T21:18:16.407Z,2.33
2023-07-17T21:23:19.359Z,2.17
2023-07-17T21:28:23.659Z,1.83
2023-07-17T21:33:26.501Z,1.67
2023-07-17T21:38:29.388Z,1.60
2023-07-17T21:43:33.664Z,1.98
2023-07-17T21:48:36.606Z,2.70
2023-07-17T21:53:39.501Z,1.88
2023-07-17T21:58:43.766Z,2.15
2023-07-17T22:03:46.799Z,2.28
2023-07-17T22:08:49.954Z,2.35
2023-07-17T22:13:54.449Z,2.00
2023-07-17T22:18:57.407Z,2.08
2023-07-17T22:24:00.286Z,1.83
2023-07-17T22:29:05.194Z,2.33
2023-07-17T22:34:08.040Z,1.50
2023-07-17T22:39:10.902Z,1.90
2023-07-17T22:44:15.354Z,1.83
2023-07-17T22:49:18.281Z,2.33
2023-07-17T22:54:21.303Z,1.92
2023-07-17T22:59:26.218Z,1.50
2023-07-17T23:04:29.201Z,2.17
2023-07-17T23:09:33.386Z,1.75
2023-07-17T23:14:38.124Z,2.83
2023-07-17T23:19:41.008Z,2.08
2023-07-17T23:24:44.617Z,2.28
2023-07-17T23:29:49.051Z,1.83
2023-07-17T23:34:52.037Z,2.10
2023-07-17T23:39:55.217Z,2.10
2023-07-17T23:45:02.445Z,1.52
2023-07-17T23:50:05.923Z,2.03
2023-07-17T23:55:09.943Z,1.75
